Time,TemperatureF,DewpointF,PressureIn,WindDirection,WindDirectionDegrees,WindSpeedMPH,WindSpeedGustMPH,Humidity,HourlyPrecipIn,Conditions,Clouds,dailyrainin,SoftwareType,DateUTC
2013-06-27 00:00:00,79.2,70.3,29.94,NNE,16,0.0,0.0,75,0.00,,,0.00,WSDL version 420,2013-06-27 04:00:00,
2013-06-27 00:05:00,79.0,70.3,29.94,North,360,0.0,0.0,75,0.00,,,0.00,WSDL version 420,2013-06-27 04:05:00,
2013-06-27 00:10:00,79.0,70.4,29.94,SE,135,0.0,0.0,75,0.00,,,0.00,WSDL version 420,2013-06-27 04:10:00,
2013-06-27 00:15:00,78.9,70.3,29.94,ESE,119,0.0,0.0,75,0.00,,,0.00,WSDL version 420,2013-06-27 04:15:00,
2013-06-27 00:20:00,78.8,70.2,29.94,SE,135,0.0,0.0,75,0.00,,,0.00,WSDL version 420,2013-06-27 04:20:00,
2013-06-27 00:25:00,78.8,70.6,29.94,SE,135,0.0,0.0,76,0.00,,,0.00,WSDL version 420,2013-06-27 04:25:00,
2013-06-27 00:30:00,78.7,70.5,29.94,SE,135,0.0,0.0,76,0.00,,,0.00,WSDL version 420,2013-06-27 04:30:00,
2013-06-27 00:35:00,78.6,70.8,29.94,SE,135,0.0,0.0,77,0.00,,,0.00,WSDL version 420,2013-06-27 04:35:00,
2013-06-27 00:40:00,78.4,70.6,29.94,SE,135,0.0,0.0,77,0.00,,,0.00,WSDL version 420,2013-06-27 04:40:00,
2013-06-27 00:45:00,78.3,70.5,29.94,NNW,338,0.0,0.0,77,0.00,,,0.00,WSDL version 420,2013-06-27 04:45:00,
2013-06-27 00:50:00,78.3,70.6,29.94,NNW,338,0.0,0.0,78,0.00,,,0.00,WSDL version 420,2013-06-27 04:50:00,
2013-06-27 00:55:00,78.1,70.7,29.94,NNW,338,0.0,0.0,78,0.00,,,0.00,WSDL version 420,2013-06-27 04:55:00,
2013-06-27 01:00:00,78.1,70.7,29.94,NNW,338,0.0,0.0,78,0.00,,,0.00,WSDL version 420,2013-06-27 05:00:00,
2013-06-27 01:05:00,77.9,70.5,29.94,NNW,338,0.0,0.0,78,0.00,,,0.00,WSDL version 420,2013-06-27 05:05:00,
2013-06-27 01:10:00,77.8,70.8,29.94,NNW,338,0.0,0.0,79,0.00,,,0.00,WSDL version 420,2013-06-27 05:10:00,
2013-06-27 01:15:00,77.7,70.7,29.94,NNW,338,0.0,0.0,79,0.00,,,0.00,WSDL version 420,2013-06-27 05:15:00,
2013-06-27 01:20:00,77.6,70.6,29.94,NNW,338,0.0,0.0,79,0.00,,,0.00,WSDL version 420,2013-06-27 05:20:00,
2013-06-27 01:25:00,77.4,70.4,29.94,NNW,338,0.0,0.0,79,0.00,,,0.00,WSDL version 420,2013-06-27 05:25:00,
2013-06-27 01:30:00,77.4,70.6,29.94,NNW,338,0.0,0.0,80,0.00,,,0.00,WSDL version 420,2013-06-27 05:30:00,
2013-06-27 01:35:00,77.3,70.7,29.94,NNW,338,0.0,0.0,80,0.00,,,0.00,WSDL version 420,2013-06-27 05:35:00,
2013-06-27 01:40:00,77.2,70.5,29.94,NNW,343,0.0,0.0,80,0.00,,,0.00,WSDL version 420,2013-06-27 05:40:00,
2013-06-27 01:45:00,77.0,70.4,29.94,North,360,0.0,0.0,80,0.00,,,0.00,WSDL version 420,2013-06-27 05:45:00,
2013-06-27 01:50:00,77.0,70.6,29.94,North,360,0.0,0.0,81,0.00,,,0.00,WSDL version 420,2013-06-27 05:50:00,
2013-06-27 01:55:00,77.0,71.0,29.94,North,360,0.0,0.0,82,0.00,,,0.00,WSDL version 420,2013-06-27 05:55:00,
2013-06-27 02:00:00,76.8,71.0,29.94,North,360,0.0,0.0,82,0.00,,,0.00,WSDL version 420,2013-06-27 06:00:00,
2013-06-27 02:10:00,76.8,71.1,29.94,North,360,0.0,0.0,82,0.00,,,0.00,WSDL version 420,2013-06-27 06:10:00,
2013-06-27 02:15:00,76.8,71.4,29.91,North,360,0.0,0.0,83,0.00,,,0.00,WSDL version 420,2013-06-27 06:15:00,
2013-06-27 02:20:00,76.6,71.2,29.91,North,360,0.0,0.0,83,0.00,,,0.00,WSDL version 420,2013-06-27 06:20:00,
2013-06-27 02:25:00,76.6,71.2,29.91,North,360,0.0,0.0,83,0.00,,,0.00,WSDL version 420,2013-06-27 06:25:00,
2013-06-27 02:30:00,76.5,71.0,29.91,North,360,0.0,0.0,83,0.00,,,0.00,WSDL version 420,2013-06-27 06:30:00,
2013-06-27 02:35:00,76.5,71.3,29.91,North,360,0.0,0.0,84,0.00,,,0.00,WSDL version 420,2013-06-27 06:35:00,
2013-06-27 02:40:00,76.3,71.2,29.91,North,360,0.0,0.0,84,0.00,,,0.00,WSDL version 420,2013-06-27 06:40:00,
2013-06-27 02:45:00,76.3,71.2,29.91,North,360,0.0,0.0,84,0.00,,,0.00,WSDL version 420,2013-06-27 06:45:00,
2013-06-27 02:50:00,76.3,71.2,29.91,North,360,0.0,0.0,84,0.00,,,0.00,WSDL version 420,2013-06-27 06:50:00,
2013-06-27 02:55:00,76.3,71.2,29.91,North,360,0.0,0.0,84,0.00,,,0.00,WSDL version 420,2013-06-27 06:55:00,
2013-06-27 03:00:00,76.3,71.6,29.91,North,360,0.0,0.0,86,0.00,,,0.00,WSDL version 420,2013-06-27 07:00:00,
2013-06-27 03:05:00,76.3,71.6,29.91,North,360,0.0,0.0,86,0.00,,,0.00,WSDL version 420,2013-06-27 07:05:00,
2013-06-27 03:10:00,76.2,71.6,29.91,North,360,0.0,0.0,86,0.00,,,0.00,WSDL version 420,2013-06-27 07:10:00,
2013-06-27 03:15:00,76.1,71.5,29.91,North,360,0.0,0.0,86,0.00,,,0.00,WSDL version 420,2013-06-27 07:15:00,
2013-06-27 03:20:00,76.1,71.7,29.91,North,360,0.0,0.0,87,0.00,,,0.00,WSDL version 420,2013-06-27 07:20:00,
2013-06-27 03:25:00,76.1,71.8,29.91,North,360,0.0,0.0,87,0.00,,,0.00,WSDL version 420,2013-06-27 07:25:00,
2013-06-27 03:30:00,76.1,71.8,29.91,North,360,0.0,0.0,87,0.00,,,0.00,WSDL version 420,2013-06-27 07:30:00,
2013-06-27 03:35:00,75.9,71.7,29.91,North,360,0.0,0.0,87,0.00,,,0.00,WSDL version 420,2013-06-27 07:35:00,
2013-06-27 03:40:00,75.9,71.7,29.91,North,360,0.0,0.0,87,0.00,,,0.00,WSDL version 420,2013-06-27 07:40:00,
2013-06-27 03:45:00,75.9,71.6,29.88,North,360,0.0,0.0,87,0.00,,,0.00,WSDL version 420,2013-06-27 07:45:00,
2013-06-27 03:50:00,75.7,71.5,29.88,North,360,0.0,0.0,87,0.00,,,0.00,WSDL version 420,2013-06-27 07:50:00,
2013-06-27 03:55:00,75.9,72.0,29.88,North,360,0.0,0.0,88,0.00,,,0.00,WSDL version 420,2013-06-27 07:55:00,
2013-06-27 04:00:00,75.8,71.9,29.91,North,360,0.0,0.0,88,0.00,,,0.00,WSDL version 420,2013-06-27 08:00:00,
2013-06-27 04:05:00,75.7,71.9,29.91,North,360,0.0,0.0,88,0.00,,,0.00,WSDL version 420,2013-06-27 08:05:00,
2013-06-27 04:10:00,75.7,71.8,29.91,North,360,0.0,0.0,88,0.00,,,0.00,WSDL version 420,2013-06-27 08:10:00,
2013-06-27 04:15:00,75.6,71.7,29.88,North,360,0.0,0.0,88,0.00,,,0.00,WSDL version 420,2013-06-27 08:15:00,
2013-06-27 04:20:00,75.6,71.7,29.88,North,360,0.0,0.0,88,0.00,,,0.00,WSDL version 420,2013-06-27 08:20:00,
2013-06-27 04:25:00,75.6,71.7,29.88,North,360,0.0,0.0,88,0.00,,,0.00,WSDL version 420,2013-06-27 08:25:00,
2013-06-27 04:30:00,75.6,71.7,29.91,North,360,0.0,0.0,88,0.00,,,0.00,WSDL version 420,2013-06-27 08:30:00,
2013-06-27 04:35:00,75.6,71.7,29.91,North,360,0.0,0.0,88,0.00,,,0.00,WSDL version 420,2013-06-27 08:35:00,
2013-06-27 04:40:00,75.5,71.6,29.91,North,360,0.0,0.0,88,0.00,,,0.00,WSDL version 420,2013-06-27 08:40:00,
2013-06-27 04:45:00,75.4,71.5,29.91,North,360,0.0,0.0,88,0.00,,,0.00,WSDL version 420,2013-06-27 08:45:00,
2013-06-27 04:50:00,75.4,71.6,29.91,North,360,0.0,0.0,89,0.00,,,0.00,WSDL version 420,2013-06-27 08:50:00,
2013-06-27 04:55:00,75.4,71.9,29.91,North,360,0.0,0.0,89,0.00,,,0.00,WSDL version 420,2013-06-27 08:55:00,
2013-06-27 05:00:00,75.4,71.9,29.91,North,360,0.0,0.0,89,0.00,,,0.00,WSDL version 420,2013-06-27 09:00:00,
2013-06-27 05:05:00,75.3,71.8,29.91,North,360,0.0,0.0,89,0.00,,,0.00,WSDL version 420,2013-06-27 09:05:00,
2013-06-27 05:10:00,75.4,71.9,29.91,North,360,0.0,0.0,89,0.00,,,0.00,WSDL version 420,2013-06-27 09:10:00,
2013-06-27 05:15:00,75.2,71.7,29.91,North,360,0.0,0.0,89,0.00,,,0.00,WSDL version 420,2013-06-27 09:15:00,
2013-06-27 05:20:00,75.2,71.7,29.91,North,360,0.0,0.0,89,0.00,,,0.00,WSDL version 420,2013-06-27 09:20:00,
2013-06-27 05:25:00,75.2,71.7,29.91,North,360,0.0,0.0,89,0.00,,,0.00,WSDL version 420,2013-06-27 09:25:00,
2013-06-27 05:30:00,75.2,71.7,29.91,North,360,0.0,0.0,89,0.00,,,0.00,WSDL version 420,2013-06-27 09:30:00,
2013-06-27 05:35:00,75.3,71.8,29.91,North,360,0.0,0.0,89,0.00,,,0.00,WSDL version 420,2013-06-27 09:35:00,
2013-06-27 05:40:00,75.2,71.7,29.91,North,360,0.0,0.0,89,0.00,,,0.00,WSDL version 420,2013-06-27 09:40:00,
2013-06-27 05:45:00,75.2,71.7,29.91,North,360,0.0,0.0,89,0.00,,,0.00,WSDL version 420,2013-06-27 09:45:00,
2013-06-27 05:50:00,75.2,71.7,29.91,North,360,0.0,0.0,89,0.00,,,0.00,WSDL version 420,2013-06-27 09:50:00,
2013-06-27 05:55:00,75.2,71.8,29.91,North,360,0.0,0.0,89,0.00,,,0.00,WSDL version 420,2013-06-27 09:55:00,
2013-06-27 06:00:00,75.2,71.7,29.91,North,360,0.0,0.0,89,0.00,,,0.00,WSDL version 420,2013-06-27 10:00:00,
2013-06-27 06:05:00,75.2,71.7,29.91,North,360,0.0,0.0,89,0.00,,,0.00,WSDL version 420,2013-06-27 10:05:00,
2013-06-27 06:10:00,75.2,72.0,29.91,North,360,0.0,0.0,90,0.00,,,0.00,WSDL version 420,2013-06-27 10:10:00,
2013-06-27 06:15:00,75.2,72.1,29.94,North,360,0.0,0.0,90,0.00,,,0.00,WSDL version 420,2013-06-27 10:15:00,
2013-06-27 06:20:00,75.2,72.1,29.94,North,360,0.0,0.0,90,0.00,,,0.00,WSDL version 420,2013-06-27 10:20:00,
2013-06-27 06:25:00,75.1,71.9,29.94,North,360,0.0,0.0,90,0.00,,,0.00,WSDL version 420,2013-06-27 10:25:00,
2013-06-27 06:30:00,75.1,71.9,29.94,North,360,0.0,0.0,90,0.00,,,0.00,WSDL version 420,2013-06-27 10:30:00,
2013-06-27 06:35:00,75.1,72.0,29.94,North,360,0.0,0.0,90,0.00,,,0.00,WSDL version 420,2013-06-27 10:35:00,
2013-06-27 06:40:00,75.2,72.1,29.94,North,360,0.0,0.0,90,0.00,,,0.00,WSDL version 420,2013-06-27 10:40:00,
2013-06-27 06:45:00,75.2,72.1,29.94,ENE,68,0.0,0.0,90,0.00,,,0.00,WSDL version 420,2013-06-27 10:45:00,
2013-06-27 06:50:00,75.2,72.1,29.94,ENE,68,0.0,0.0,90,0.00,,,0.00,WSDL version 420,2013-06-27 10:50:00,
2013-06-27 06:55:00,75.4,72.2,29.94,ENE,68,0.0,0.0,90,0.00,,,0.00,WSDL version 420,2013-06-27 10:55:00,
2013-06-27 07:00:00,75.6,72.4,29.94,East,86,0.0,0.0,90,0.00,,,0.00,WSDL version 420,2013-06-27 11:00:00,
2013-06-27 07:05:00,75.6,72.5,29.94,East,90,0.0,0.0,90,0.00,,,0.00,WSDL version 420,2013-06-27 11:05:00,
2013-06-27 07:10:00,75.7,72.6,29.94,East,90,0.0,0.0,90,0.00,,,0.00,WSDL version 420,2013-06-27 11:10:00,
2013-06-27 07:15:00,75.8,72.7,29.94,East,90,0.0,0.0,90,0.00,,,0.00,WSDL version 420,2013-06-27 11:15:00,
2013-06-27 07:20:00,76.0,72.8,29.94,East,90,0.0,0.0,90,0.00,,,0.00,WSDL version 420,2013-06-27 11:20:00,
2013-06-27 07:25:00,76.1,73.0,29.94,East,90,0.0,0.0,90,0.00,,,0.00,WSDL version 420,2013-06-27 11:25:00,
2013-06-27 07:30:00,76.4,73.2,29.94,NE,45,0.0,0.0,90,0.00,,,0.00,WSDL version 420,2013-06-27 11:30:00,
2013-06-27 07:35:00,76.8,73.7,29.94,NE,45,0.0,0.0,90,0.00,,,0.00,WSDL version 420,2013-06-27 11:35:00,
2013-06-27 07:45:00,78.1,75.3,29.94,NE,50,0.0,0.0,91,0.00,,,0.00,WSDL version 420,2013-06-27 11:45:00,
2013-06-27 07:50:00,79.4,76.2,29.94,North,360,0.0,0.0,90,0.00,,,0.00,WSDL version 420,2013-06-27 11:50:00,
2013-06-27 07:55:00,80.7,77.5,29.94,North,6,0.0,0.0,90,0.00,,,0.00,WSDL version 420,2013-06-27 11:55:00,
2013-06-27 08:00:00,82.4,79.0,29.94,North,357,0.4,1.3,89,0.00,,,0.00,WSDL version 420,2013-06-27 12:00:00,
2013-06-27 08:05:00,85.0,80.4,29.94,North,360,0.0,1.3,84,0.00,,,0.00,WSDL version 420,2013-06-27 12:05:00,
2013-06-27 08:10:00,86.6,79.7,29.94,North,360,0.0,1.3,78,0.00,,,0.00,WSDL version 420,2013-06-27 12:10:00,
2013-06-27 08:15:00,88.5,79.1,29.94,North,360,0.0,0.0,72,0.00,,,0.00,WSDL version 420,2013-06-27 12:15:00,
2013-06-27 08:20:00,90.4,77.8,29.94,North,360,0.0,0.0,64,0.00,,,0.00,WSDL version 420,2013-06-27 12:20:00,
2013-06-27 08:25:00,91.9,76.8,29.94,NNE,15,0.0,0.0,60,0.00,,,0.00,WSDL version 420,2013-06-27 12:25:00,
2013-06-27 08:30:00,92.7,74.7,29.97,NE,45,0.0,0.0,55,0.00,,,0.00,WSDL version 420,2013-06-27 12:30:00,
2013-06-27 08:35:00,93.6,73.5,29.97,SE,124,0.0,0.0,51,0.00,,,0.00,WSDL version 420,2013-06-27 12:35:00,
2013-06-27 08:40:00,94.9,74.0,29.97,East,90,0.0,0.0,50,0.00,,,0.00,WSDL version 420,2013-06-27 12:40:00,
2013-06-27 08:50:00,96.4,71.8,29.97,ESE,113,0.0,0.0,44,0.00,,,0.00,WSDL version 420,2013-06-27 12:50:00,
2013-06-27 08:55:00,97.3,71.1,29.97,SSE,154,0.0,0.0,42,0.00,,,0.00,WSDL version 420,2013-06-27 12:55:00,
2013-06-27 09:00:00,97.9,70.0,29.97,ENE,64,0.0,0.0,40,0.00,,,0.00,WSDL version 420,2013-06-27 13:00:00,
2013-06-27 09:05:00,98.2,70.5,29.97,NE,49,0.0,0.0,41,0.00,,,0.00,WSDL version 420,2013-06-27 13:05:00,
2013-06-27 09:10:00,98.6,69.4,29.97,North,11,0.0,0.0,38,-99.99,,,-99.99,WSDL version 420,2013-06-27 13:10:00,
2013-06-27 09:15:00,98.8,69.7,29.97,ESE,120,0.0,0.0,40,-99.99,,,-99.99,WSDL version 420,2013-06-27 13:15:00,
2013-06-27 09:20:00,99.1,70.6,29.97,NE,38,0.0,0.0,40,-99.99,,,-99.99,WSDL version 420,2013-06-27 13:20:00,
2013-06-27 09:25:00,99.5,70.2,29.97,ENE,72,1.2,2.7,39,-99.99,,,-99.99,WSDL version 420,2013-06-27 13:25:00,
2013-06-27 09:30:00,100.7,70.9,29.97,South,176,1.3,2.7,39,0.00,,,0.00,WSDL version 420,2013-06-27 13:30:00,
2013-06-27 09:35:00,101.7,71.5,29.97,South,188,0.3,4.0,38,0.00,,,0.00,WSDL version 420,2013-06-27 13:35:00,
2013-06-27 09:40:00,102.0,70.8,29.97,ENE,68,0.0,4.0,37,0.00,,,0.00,WSDL version 420,2013-06-27 13:40:00,
2013-06-27 09:45:00,99.0,68.6,29.97,NNW,344,1.2,2.7,39,0.00,,,0.00,WSDL version 420,2013-06-27 13:45:00,
2013-06-27 09:50:00,100.3,70.1,29.97,North,5,0.4,2.7,38,0.00,,,0.00,WSDL version 420,2013-06-27 13:50:00,
2013-06-27 09:55:00,99.9,69.0,29.97,NNW,338,2.2,3.8,37,-99.99,,,-99.99,WSDL version 420,2013-06-27 13:55:00,
2013-06-27 10:00:00,98.6,68.6,29.97,NNE,17,1.1,3.8,38,0.00,,,0.00,WSDL version 420,2013-06-27 14:00:00,
2013-06-27 10:05:00,98.8,69.0,29.97,NNW,344,0.0,2.9,39,0.00,,,0.00,WSDL version 420,2013-06-27 14:05:00,
2013-06-27 10:10:00,97.3,68.4,29.97,East,93,1.8,2.5,40,0.00,,,0.00,WSDL version 420,2013-06-27 14:10:00,
2013-06-27 10:15:00,96.9,68.9,29.97,ESE,118,1.6,2.9,40,0.00,,,0.00,WSDL version 420,2013-06-27 14:15:00,
2013-06-27 10:20:00,97.8,69.1,29.97,ENE,64,1.7,2.9,40,0.00,,,0.00,WSDL version 420,2013-06-27 14:20:00,
2013-06-27 10:25:00,98.5,70.5,29.97,South,169,1.6,3.1,40,0.00,,,0.00,WSDL version 420,2013-06-27 14:25:00,
2013-06-27 10:30:00,96.3,68.2,29.97,SSW,200,2.5,3.8,41,0.00,,,0.00,WSDL version 420,2013-06-27 14:30:00,
2013-06-27 10:35:00,94.8,67.9,29.97,SSW,203,2.9,3.8,42,0.00,,,0.00,WSDL version 420,2013-06-27 14:35:00,
2013-06-27 10:40:00,92.8,66.1,29.97,SW,225,3.3,4.0,41,0.00,,,0.00,WSDL version 420,2013-06-27 14:40:00,
2013-06-27 10:45:00,90.8,64.2,29.97,South,189,2.7,4.0,42,0.00,,,0.00,WSDL version 420,2013-06-27 14:45:00,
2013-06-27 10:50:00,88.4,64.7,29.97,WSW,240,2.6,4.0,50,0.00,,,0.00,WSDL version 420,2013-06-27 14:50:00,
2013-06-27 10:55:00,86.0,66.7,29.97,WSW,248,2.5,2.9,54,0.21,,,0.21,WSDL version 420,2013-06-27 14:55:00,
2013-06-27 11:00:00,83.5,66.8,29.97,WSW,248,2.5,2.5,58,0.42,,,0.42,WSDL version 420,2013-06-27 15:00:00,
2013-06-27 11:05:00,81.7,66.6,29.97,WSW,248,2.5,2.5,61,0.71,,,0.71,WSDL version 420,2013-06-27 15:05:00,
2013-06-27 11:10:00,80.8,67.4,29.97,North,0,0.0,1.6,65,0.75,,,0.75,WSDL version 420,2013-06-27 15:10:00,
2013-06-27 11:15:00,80.5,68.1,29.97,ENE,68,1.6,2.5,67,0.75,,,0.75,WSDL version 420,2013-06-27 15:15:00,
2013-06-27 11:20:00,80.1,68.6,29.97,ENE,68,1.6,2.5,69,0.79,,,0.79,WSDL version 420,2013-06-27 15:20:00,
2013-06-27 11:25:00,80.1,69.6,29.97,North,0,0.0,2.5,71,0.79,,,0.79,WSDL version 420,2013-06-27 15:25:00,
2013-06-27 11:30:00,80.0,70.1,29.94,North,0,0.0,2.5,72,0.79,,,0.79,WSDL version 420,2013-06-27 15:30:00,
2013-06-27 11:35:00,79.9,70.1,29.94,North,0,0.0,0.0,72,0.79,,,0.79,WSDL version 420,2013-06-27 15:35:00,
2013-06-27 11:40:00,79.7,70.1,29.94,East,90,0.0,0.9,73,0.79,,,0.79,WSDL version 420,2013-06-27 15:40:00,
2013-06-27 11:45:00,79.8,70.7,30.00,East,90,0.0,0.9,73,0.79,,,0.79,WSDL version 420,2013-06-27 15:45:00,
2013-06-27 11:50:00,80.0,71.1,30.00,NE,45,0.0,0.9,75,0.79,,,0.79,WSDL version 420,2013-06-27 15:50:00,
2013-06-27 11:55:00,80.1,71.5,30.00,NE,45,0.0,0.9,75,0.58,,,0.79,WSDL version 420,2013-06-27 15:55:00,
2013-06-27 12:00:00,80.4,72.0,29.97,NE,45,0.0,0.0,76,0.37,,,0.79,WSDL version 420,2013-06-27 16:00:00,
2013-06-27 12:05:00,80.5,72.5,29.97,ENE,68,2.7,2.9,76,0.08,,,0.79,WSDL version 420,2013-06-27 16:05:00,
2013-06-27 12:10:00,80.8,72.7,29.97,NNE,23,1.6,2.9,76,0.04,,,0.79,WSDL version 420,2013-06-27 16:10:00,
2013-06-27 12:15:00,81.3,72.8,29.97,ENE,68,2.5,3.6,75,0.04,,,0.79,WSDL version 420,2013-06-27 16:15:00,
2013-06-27 12:20:00,81.8,73.1,29.97,East,90,1.1,3.6,75,0.00,,,0.79,WSDL version 420,2013-06-27 16:20:00,
2013-06-27 12:25:00,82.3,73.4,29.97,SW,233,0.1,3.4,74,0.00,,,0.79,WSDL version 420,2013-06-27 16:25:00,
2013-06-27 12:30:00,82.6,73.5,29.97,ENE,59,0.5,3.4,74,0.00,,,0.79,WSDL version 420,2013-06-27 16:30:00,
2013-06-27 12:35:00,82.9,73.3,29.97,East,81,0.4,3.1,72,0.00,,,0.79,WSDL version 420,2013-06-27 16:35:00,
2013-06-27 12:40:00,83.2,72.9,29.97,ESE,105,0.4,3.1,71,0.00,,,0.79,WSDL version 420,2013-06-27 16:40:00,
2013-06-27 12:45:00,83.8,73.0,29.97,ESE,120,0.0,2.0,70,0.00,,,0.79,WSDL version 420,2013-06-27 16:45:00,
2013-06-27 12:50:00,84.0,72.5,29.97,ENE,72,0.4,2.0,68,0.00,,,0.79,WSDL version 420,2013-06-27 16:50:00,
2013-06-27 12:55:00,84.1,72.3,29.97,WSW,255,0.5,3.6,68,0.00,,,0.79,WSDL version 420,2013-06-27 16:55:00,
2013-06-27 13:00:00,84.4,72.1,29.94,SW,225,0.1,3.6,67,0.00,,,0.79,WSDL version 420,2013-06-27 17:00:00,
2013-06-27 13:05:00,84.4,71.7,29.94,East,79,1.7,3.6,65,0.00,,,0.79,WSDL version 420,2013-06-27 17:05:00,
2013-06-27 13:10:00,85.2,72.5,29.94,NE,50,1.9,3.6,66,0.00,,,0.79,WSDL version 420,2013-06-27 17:10:00,
2013-06-27 13:15:00,86.9,73.8,29.94,ENE,64,1.2,4.0,65,0.00,,,0.79,WSDL version 420,2013-06-27 17:15:00,
2013-06-27 13:20:00,88.4,74.5,29.94,SSE,163,0.7,4.0,64,0.00,,,0.79,WSDL version 420,2013-06-27 17:20:00,
2013-06-27 13:25:00,89.0,73.2,29.94,ENE,74,3.4,5.6,61,0.00,,,0.79,WSDL version 420,2013-06-27 17:25:00,
2013-06-27 13:30:00,89.4,74.1,29.94,East,98,1.0,5.6,60,0.00,,,0.79,WSDL version 420,2013-06-27 17:30:00,
2013-06-27 13:35:00,89.2,72.7,29.94,ENE,63,3.8,7.6,58,0.00,,,0.79,WSDL version 420,2013-06-27 17:35:00,
2013-06-27 13:40:00,88.9,72.2,29.94,ENE,65,1.4,7.6,59,0.00,,,0.79,WSDL version 420,2013-06-27 17:40:00,
2013-06-27 13:45:00,89.1,72.6,29.94,West,273,2.4,4.0,59,0.00,,,0.79,WSDL version 420,2013-06-27 17:45:00,
2013-06-27 13:50:00,89.1,72.6,29.94,ESE,103,1.0,4.0,59,0.00,,,0.79,WSDL version 420,2013-06-27 17:50:00,
2013-06-27 13:55:00,89.7,73.8,29.94,East,100,1.8,4.0,60,0.00,,,0.79,WSDL version 420,2013-06-27 17:55:00,
2013-06-27 14:00:00,90.2,73.8,29.94,SE,145,2.4,5.4,57,0.00,,,0.79,WSDL version 420,2013-06-27 18:00:00,
2013-06-27 14:05:00,89.5,72.3,29.94,NE,53,1.8,5.4,57,0.00,,,0.79,WSDL version 420,2013-06-27 18:05:00,
2013-06-27 14:10:00,90.2,73.2,29.94,ESE,122,1.4,3.8,58,0.00,,,0.79,WSDL version 420,2013-06-27 18:10:00,
2013-06-27 14:15:00,89.6,71.8,29.94,West,278,1.0,4.9,56,0.00,,,0.79,WSDL version 420,2013-06-27 18:15:00,
2013-06-27 14:20:00,89.0,71.3,29.94,SE,138,2.8,4.9,56,0.00,,,0.79,WSDL version 420,2013-06-27 18:20:00,
2013-06-27 14:25:00,88.2,70.1,29.94,ENE,75,1.0,3.8,55,0.00,,,0.79,WSDL version 420,2013-06-27 18:25:00,
2013-06-27 14:30:00,87.6,69.8,29.91,South,180,0.6,3.4,57,0.00,,,0.79,WSDL version 420,2013-06-27 18:30:00,
2013-06-27 14:35:00,87.5,71.0,29.91,South,173,0.6,3.4,59,0.00,,,0.79,WSDL version 420,2013-06-27 18:35:00,
2013-06-27 14:40:00,87.6,71.4,29.91,SSE,152,1.5,3.1,59,0.00,,,0.79,WSDL version 420,2013-06-27 18:40:00,
2013-06-27 14:45:00,87.6,71.0,29.94,East,100,1.2,3.4,58,0.00,,,0.79,WSDL version 420,2013-06-27 18:45:00,
2013-06-27 14:50:00,87.7,71.2,29.94,East,96,0.6,3.4,58,0.00,,,0.79,WSDL version 420,2013-06-27 18:50:00,
2013-06-27 14:55:00,87.8,71.4,29.94,SE,135,0.4,3.4,59,0.00,,,0.79,WSDL version 420,2013-06-27 18:55:00,
2013-06-27 15:00:00,88.6,72.2,29.94,NNW,334,1.2,3.8,59,0.00,,,0.79,WSDL version 420,2013-06-27 19:00:00,
2013-06-27 15:05:00,89.5,72.4,29.94,ENE,68,2.7,4.3,57,0.00,,,0.79,WSDL version 420,2013-06-27 19:05:00,
2013-06-27 15:10:00,90.7,73.6,29.94,South,170,1.3,4.3,58,0.00,,,0.79,WSDL version 420,2013-06-27 19:10:00,
2013-06-27 15:15:00,91.7,74.0,29.91,SE,127,2.0,4.3,56,0.00,,,0.79,WSDL version 420,2013-06-27 19:15:00,
2013-06-27 15:20:00,92.4,74.0,29.91,East,86,2.0,4.3,53,0.00,,,0.79,WSDL version 420,2013-06-27 19:20:00,
2013-06-27 15:25:00,92.9,73.8,29.91,NW,323,1.6,4.7,53,0.00,,,0.79,WSDL version 420,2013-06-27 19:25:00,
2013-06-27 15:30:00,93.1,72.7,29.91,South,169,2.2,4.7,52,0.00,,,0.79,WSDL version 420,2013-06-27 19:30:00,
2013-06-27 15:35:00,93.9,73.3,29.91,South,189,1.3,3.8,50,0.00,,,0.79,WSDL version 420,2013-06-27 19:35:00,
2013-06-27 15:40:00,93.3,69.9,29.91,ENE,68,3.6,7.4,46,0.00,,,0.79,WSDL version 420,2013-06-27 19:40:00,
2013-06-27 15:45:00,91.9,68.8,29.91,NE,50,3.8,7.4,46,0.00,,,0.79,WSDL version 420,2013-06-27 19:45:00,
2013-06-27 15:50:00,91.0,68.3,29.91,ESE,105,2.6,5.8,47,0.00,,,0.79,WSDL version 420,2013-06-27 19:50:00,
2013-06-27 15:55:00,89.9,67.0,29.91,ENE,58,2.7,4.5,48,0.00,,,0.79,WSDL version 420,2013-06-27 19:55:00,
2013-06-27 16:00:00,89.6,68.6,29.91,ESE,104,2.3,4.7,50,0.00,,,0.79,WSDL version 420,2013-06-27 20:00:00,
2013-06-27 16:05:00,89.6,68.3,29.91,East,79,3.0,4.9,50,0.00,,,0.79,WSDL version 420,2013-06-27 20:05:00,
2013-06-27 16:10:00,89.3,68.9,29.91,SE,145,1.8,4.9,52,0.00,,,0.79,WSDL version 420,2013-06-27 20:10:00,
2013-06-27 16:15:00,88.6,68.7,29.91,ENE,71,3.9,6.0,52,0.00,,,0.79,WSDL version 420,2013-06-27 20:15:00,
2013-06-27 16:20:00,88.1,69.1,29.91,East,80,2.3,6.0,54,0.00,,,0.79,WSDL version 420,2013-06-27 20:20:00,
2013-06-27 16:25:00,88.0,70.0,29.91,SSE,165,2.6,4.7,56,0.00,,,0.79,WSDL version 420,2013-06-27 20:25:00,
2013-06-27 16:30:00,87.8,70.3,29.91,NNW,330,2.2,5.4,57,0.00,,,0.79,WSDL version 420,2013-06-27 20:30:00,
2013-06-27 16:35:00,87.4,70.7,29.91,WNW,284,1.1,5.4,58,0.00,,,0.79,WSDL version 420,2013-06-27 20:35:00,
2013-06-27 16:40:00,87.5,71.1,29.91,East,96,1.2,3.8,58,0.00,,,0.79,WSDL version 420,2013-06-27 20:40:00,
2013-06-27 16:45:00,87.6,71.2,29.91,ENE,71,2.5,6.0,58,0.00,,,0.79,WSDL version 420,2013-06-27 20:45:00,
2013-06-27 16:50:00,87.8,71.2,29.91,WNW,290,1.8,6.0,58,0.00,,,0.79,WSDL version 420,2013-06-27 20:50:00,
2013-06-27 16:55:00,87.8,71.2,29.91,SSE,158,2.5,3.8,58,0.00,,,0.79,WSDL version 420,2013-06-27 20:55:00,
2013-06-27 17:00:00,87.9,71.3,29.91,SSE,161,1.2,3.8,58,0.00,,,0.79,WSDL version 420,2013-06-27 21:00:00,
2013-06-27 17:05:00,87.8,71.3,29.91,North,358,2.0,3.4,59,0.00,,,0.79,WSDL version 420,2013-06-27 21:05:00,
2013-06-27 17:10:00,87.6,71.4,29.91,ENE,64,0.9,3.4,59,0.00,,,0.79,WSDL version 420,2013-06-27 21:10:00,
2013-06-27 17:15:00,87.3,71.5,29.91,SE,127,1.1,3.1,60,0.00,,,0.79,WSDL version 420,2013-06-27 21:15:00,
2013-06-27 17:20:00,87.1,71.1,29.91,South,173,1.9,4.7,59,0.00,,,0.79,WSDL version 420,2013-06-27 21:20:00,
2013-06-27 17:25:00,87.1,71.4,29.91,ESE,113,0.9,4.7,60,0.00,,,0.79,WSDL version 420,2013-06-27 21:25:00,
2013-06-27 17:30:00,87.0,71.5,29.91,South,169,1.7,4.7,60,0.00,,,0.79,WSDL version 420,2013-06-27 21:30:00,
2013-06-27 17:37:00,86.6,71.1,29.91,North,3,1.5,5.8,60,0.00,,,0.79,WSDL version 420,2013-06-27 21:37:00,
2013-06-27 17:42:00,86.2,70.7,29.91,SE,143,1.7,5.8,60,0.00,,,0.79,WSDL version 420,2013-06-27 21:42:00,
2013-06-27 17:47:00,85.9,70.7,29.91,WNW,300,0.6,4.3,61,0.00,,,0.79,WSDL version 420,2013-06-27 21:47:00,
2013-06-27 17:54:00,85.3,70.3,29.91,South,180,0.0,3.4,61,0.00,,,0.79,WSDL version 420,2013-06-27 21:54:00,
2013-06-27 17:59:00,85.0,70.4,29.91,SSW,211,1.1,3.4,62,0.00,,,0.79,WSDL version 420,2013-06-27 21:59:00,
2013-06-27 18:04:00,84.8,70.3,29.91,SSE,166,1.5,3.4,62,0.00,,,0.79,WSDL version 420,2013-06-27 22:04:00,
2013-06-27 18:09:00,84.5,70.5,29.91,East,93,0.0,3.4,63,0.00,,,0.79,WSDL version 420,2013-06-27 22:09:00,
2013-06-27 18:14:00,84.2,70.2,29.91,ESE,113,0.0,2.5,63,0.00,,,0.79,WSDL version 420,2013-06-27 22:14:00,
2013-06-27 18:19:00,83.9,70.4,29.91,NNE,26,0.0,2.9,64,0.00,,,0.79,WSDL version 420,2013-06-27 22:19:00,
2013-06-27 18:24:00,83.8,70.5,29.91,NNE,17,0.4,2.9,65,0.00,,,0.79,WSDL version 420,2013-06-27 22:24:00,
2013-06-27 18:31:00,83.5,70.5,29.88,NE,53,0.5,2.7,65,0.00,,,0.79,WSDL version 420,2013-06-27 22:31:00,
2013-06-27 18:36:00,83.4,70.4,29.88,SSE,154,0.8,2.7,65,0.00,,,0.79,WSDL version 420,2013-06-27 22:36:00,
2013-06-27 18:41:00,83.3,70.8,29.88,WNW,296,0.5,2.9,66,0.00,,,0.79,WSDL version 420,2013-06-27 22:41:00,
2013-06-27 18:48:00,83.3,70.7,29.88,South,174,0.5,3.4,66,0.00,,,0.79,WSDL version 420,2013-06-27 22:48:00,
2013-06-27 18:55:00,83.1,70.6,29.88,WNW,299,0.0,3.4,66,0.00,,,0.79,WSDL version 420,2013-06-27 22:55:00,
2013-06-27 19:00:00,83.1,70.6,29.88,SE,143,1.1,3.1,66,0.00,,,0.79,WSDL version 420,2013-06-27 23:00:00,
2013-06-27 19:05:00,83.1,70.6,29.88,ESE,120,0.3,3.1,66,0.00,,,0.79,WSDL version 420,2013-06-27 23:05:00,
2013-06-27 19:10:00,82.9,70.4,29.88,East,90,1.1,3.4,66,0.00,,,0.79,WSDL version 420,2013-06-27 23:10:00,
2013-06-27 19:16:00,82.9,70.6,29.88,South,180,0.0,3.4,67,0.00,,,0.79,WSDL version 420,2013-06-27 23:16:00,
2013-06-27 19:21:00,82.8,70.7,29.88,SSE,158,0.0,2.5,67,0.00,,,0.79,WSDL version 420,2013-06-27 23:21:00,
2013-06-27 19:26:00,82.8,70.5,29.88,NE,45,0.5,1.3,66,0.00,,,0.79,WSDL version 420,2013-06-27 23:26:00,
2013-06-27 19:31:00,82.6,70.1,29.88,SE,127,0.6,3.8,66,0.00,,,0.79,WSDL version 420,2013-06-27 23:31:00,
2013-06-27 19:36:00,82.5,69.7,29.88,SSE,154,1.2,3.8,65,0.00,,,0.79,WSDL version 420,2013-06-27 23:36:00,
2013-06-27 19:41:00,82.4,69.5,29.88,SSE,162,0.0,2.5,65,0.00,,,0.79,WSDL version 420,2013-06-27 23:41:00,
2013-06-27 19:46:00,82.2,69.6,29.88,SE,143,0.0,2.7,66,0.00,,,0.79,WSDL version 420,2013-06-27 23:46:00,
2013-06-27 19:51:00,82.1,69.6,29.88,South,180,0.0,2.9,66,0.00,,,0.79,WSDL version 420,2013-06-27 23:51:00,
2013-06-27 19:56:00,82.0,69.6,29.88,South,177,0.0,2.9,66,0.00,,,0.79,WSDL version 420,2013-06-27 23:56:00,
2013-06-27 20:01:00,81.9,69.4,29.88,SSE,150,0.0,0.0,66,0.00,,,0.79,WSDL version 420,2013-06-28 00:01:00,
2013-06-27 20:06:00,81.7,69.3,29.88,SE,135,0.0,0.0,66,0.00,,,0.79,WSDL version 420,2013-06-28 00:06:00,
2013-06-27 20:11:00,81.6,69.3,29.88,SE,135,0.0,0.0,67,0.00,,,0.79,WSDL version 420,2013-06-28 00:11:00,
2013-06-27 20:16:00,81.5,69.4,29.91,SE,135,0.0,0.0,67,0.00,,,0.79,WSDL version 420,2013-06-28 00:16:00,
2013-06-27 20:21:00,81.3,69.3,29.91,SE,135,0.0,0.0,67,0.00,,,0.79,WSDL version 420,2013-06-28 00:21:00,
2013-06-27 20:26:00,81.2,69.4,29.91,SE,135,0.0,0.0,68,0.00,,,0.79,WSDL version 420,2013-06-28 00:26:00,
2013-06-27 20:31:00,81.1,69.5,29.88,South,180,0.0,0.0,68,0.00,,,0.79,WSDL version 420,2013-06-28 00:31:00,
2013-06-27 20:36:00,80.9,69.3,29.88,South,180,0.0,0.0,68,0.00,,,0.79,WSDL version 420,2013-06-28 00:36:00,
2013-06-27 20:45:00,80.7,69.2,29.88,South,180,0.0,0.0,68,0.00,,,0.79,WSDL version 420,2013-06-28 00:45:00,
2013-06-27 20:55:00,80.6,69.3,29.88,SE,135,0.0,0.0,69,0.00,,,0.79,WSDL version 420,2013-06-28 00:55:00,
2013-06-27 21:02:00,80.4,69.7,29.88,SE,135,0.0,0.0,70,0.00,,,0.79,WSDL version 420,2013-06-28 01:02:00,
2013-06-27 21:07:00,80.2,69.7,29.88,SE,135,0.0,0.0,71,-99.99,,,-99.99,WSDL version 420,2013-06-28 01:07:00,
2013-06-27 21:12:00,80.1,69.8,29.88,SE,135,0.0,0.0,71,-99.99,,,-99.99,WSDL version 420,2013-06-28 01:12:00,
2013-06-27 21:17:00,80.0,70.1,29.88,SE,135,0.0,0.0,72,-99.99,,,-99.99,WSDL version 420,2013-06-28 01:17:00,
2013-06-27 21:24:00,79.6,69.8,29.88,SE,135,0.0,0.0,72,0.00,,,0.79,WSDL version 420,2013-06-28 01:24:00,
2013-06-27 21:29:00,79.4,70.0,29.91,SE,135,0.0,0.0,73,0.00,,,0.79,WSDL version 420,2013-06-28 01:29:00,
2013-06-27 21:34:00,79.3,70.0,29.91,SE,135,0.0,0.0,74,0.00,,,0.79,WSDL version 420,2013-06-28 01:34:00,
2013-06-27 21:39:00,79.2,70.2,29.91,SE,135,0.0,0.0,74,0.00,,,0.79,WSDL version 420,2013-06-28 01:39:00,
2013-06-27 21:44:00,79.0,70.3,29.91,SE,135,0.0,0.0,75,0.00,,,0.79,WSDL version 420,2013-06-28 01:44:00,
2013-06-27 21:49:00,78.8,70.3,29.91,SE,135,0.0,0.0,75,0.00,,,0.79,WSDL version 420,2013-06-28 01:49:00,
2013-06-27 21:54:00,78.8,70.4,29.91,SE,135,0.0,0.0,76,0.00,,,0.79,WSDL version 420,2013-06-28 01:54:00,
2013-06-27 21:59:00,78.6,70.5,29.91,SE,135,0.0,0.0,77,0.00,,,0.79,WSDL version 420,2013-06-28 01:59:00,
2013-06-27 22:04:00,78.5,70.7,29.91,SE,135,0.0,0.0,77,0.00,,,0.79,WSDL version 420,2013-06-28 02:04:00,
2013-06-27 22:09:00,78.3,70.5,29.91,SE,135,0.0,0.0,77,0.00,,,0.79,WSDL version 420,2013-06-28 02:09:00,
2013-06-27 22:14:00,78.3,70.6,29.91,SE,135,0.0,0.0,78,0.00,,,0.79,WSDL version 420,2013-06-28 02:14:00,
2013-06-27 22:19:00,78.3,70.8,29.91,SE,135,0.0,0.0,78,0.00,,,0.79,WSDL version 420,2013-06-28 02:19:00,
2013-06-27 22:24:00,78.2,71.1,29.91,SE,135,0.0,0.0,79,0.00,,,0.79,WSDL version 420,2013-06-28 02:24:00,
2013-06-27 22:29:00,78.1,71.0,29.91,SE,135,0.0,0.0,79,0.00,,,0.79,WSDL version 420,2013-06-28 02:29:00,
2013-06-27 22:34:00,77.9,70.9,29.91,SE,135,0.0,0.0,79,0.00,,,0.79,WSDL version 420,2013-06-28 02:34:00,
2013-06-27 22:39:00,77.8,70.9,29.91,SE,135,0.0,0.0,80,0.00,,,0.79,WSDL version 420,2013-06-28 02:39:00,
2013-06-27 22:46:00,77.7,71.0,29.91,SE,135,0.0,0.0,80,0.00,,,0.79,WSDL version 420,2013-06-28 02:46:00,
2013-06-27 22:51:00,77.5,70.9,29.91,SE,135,0.0,0.0,80,0.00,,,0.79,WSDL version 420,2013-06-28 02:51:00,
2013-06-27 22:56:00,77.5,71.0,29.91,SE,135,0.0,0.0,81,0.00,,,0.79,WSDL version 420,2013-06-28 02:56:00,
2013-06-27 23:01:00,77.5,71.3,29.88,SE,135,0.0,0.0,81,0.00,,,0.79,WSDL version 420,2013-06-28 03:01:00,
2013-06-27 23:06:00,77.5,71.2,29.88,SE,135,0.0,0.0,81,0.00,,,0.79,WSDL version 420,2013-06-28 03:06:00,
2013-06-27 23:11:00,77.4,71.3,29.88,SE,135,0.0,0.0,82,0.00,,,0.79,WSDL version 420,2013-06-28 03:11:00,
2013-06-27 23:16:00,77.2,71.4,29.91,SE,135,0.0,0.0,82,0.00,,,0.79,WSDL version 420,2013-06-28 03:16:00,
2013-06-27 23:21:00,77.0,71.2,29.91,SE,135,0.0,0.0,82,0.00,,,0.79,WSDL version 420,2013-06-28 03:21:00,
2013-06-27 23:26:00,77.0,71.3,29.91,SE,135,0.0,0.0,83,0.00,,,0.79,WSDL version 420,2013-06-28 03:26:00,
2013-06-27 23:31:00,76.9,71.5,29.88,SE,135,0.0,0.0,83,0.00,,,0.79,WSDL version 420,2013-06-28 03:31:00,
2013-06-27 23:36:00,76.8,71.6,29.88,SE,135,0.0,0.0,84,0.00,,,0.79,WSDL version 420,2013-06-28 03:36:00,
2013-06-27 23:41:00,76.8,71.8,29.88,SE,135,0.0,0.0,84,0.00,,,0.79,WSDL version 420,2013-06-28 03:41:00,
2013-06-27 23:46:00,76.7,71.6,29.88,SE,135,0.0,0.0,84,0.00,,,0.79,WSDL version 420,2013-06-28 03:46:00,
2013-06-27 23:53:00,76.6,71.6,29.88,SE,135,0.0,0.0,84,0.00,,,0.79,WSDL version 420,2013-06-28 03:53:00,
2013-06-27 23:58:00,76.6,71.7,29.91,SE,135,0.0,0.0,86,0.00,,,0.79,WSDL version 420,2013-06-28 03:58:00,